Time;durP1;ratioP1;P1;durP2;ratioP2;P2;SDS_P1;SDS_P2;PMS_P1;PMS_P2;Temp;Humidity;BMP_temperature;BMP_pressure;BME280_temperature;BME280_humidity;BME280_pressure;Samples;Min_cycle;Max_cycle;Signal;HPM_P1;HPM_P2
2021/08/27 00:00:50;;;;;;;3.67;1.50;;;17.10;99.90;;;;;;5009926;28;20036;-72
2021/08/27 00:03:16;;;;;;;1.10;1.00;;;17.00;99.90;;;;;;5007074;28;20105;-72
2021/08/27 00:05:42;;;;;;;2.38;1.65;;;17.00;99.90;;;;;;5009225;28;20260;-74
2021/08/27 00:08:08;;;;;;;2.70;1.35;;;17.00;99.90;;;;;;5005718;28;20045;-72
2021/08/27 00:10:33;;;;;;;1.42;1.05;;;16.90;99.90;;;;;;5009906;28;20022;-73
2021/08/27 00:12:59;;;;;;;2.90;0.90;;;16.90;99.90;;;;;;5008372;28;21033;-75
2021/08/27 00:15:25;;;;;;;1.42;1.27;;;17.00;99.90;;;;;;5005626;28;20431;-71
2021/08/27 00:17:51;;;;;;;2.35;1.73;;;17.00;99.90;;;;;;5009845;28;20022;-72
2021/08/27 00:20:16;;;;;;;2.90;1.30;;;17.00;99.90;;;;;;5009299;28;20104;-72
2021/08/27 00:22:42;;;;;;;3.75;1.83;;;17.00;99.90;;;;;;5007849;28;20559;-72
2021/08/27 00:25:09;;;;;;;2.28;2.08;;;17.00;99.90;;;;;;5009441;28;20026;-72
2021/08/27 00:27:35;;;;;;;2.92;1.80;;;17.00;99.90;;;;;;5005377;28;20022;-72
2021/08/27 00:30:00;;;;;;;1.77;1.50;;;17.00;99.90;;;;;;5009715;28;20041;-72
2021/08/27 00:32:30;;;;;;;2.25;2.05;;;17.10;99.90;;;;;;5010383;28;20029;-71
2021/08/27 00:34:55;;;;;;;1.92;1.08;;;17.00;99.90;;;;;;5008468;28;20037;-73
2021/08/27 00:37:21;;;;;;;0.95;0.88;;;17.00;99.90;;;;;;5009542;28;20025;-73
2021/08/27 00:39:47;;;;;;;1.75;1.38;;;17.00;99.90;;;;;;5002854;28;20102;-74
2021/08/27 00:42:13;;;;;;;1.20;0.98;;;17.00;99.90;;;;;;5010185;28;20037;-73
2021/08/27 00:44:38;;;;;;;1.20;1.02;;;16.90;99.90;;;;;;5009807;28;20029;-73
2021/08/27 00:47:04;;;;;;;1.40;1.10;;;16.90;99.90;;;;;;5009200;28;20045;-76
2021/08/27 00:49:31;;;;;;;1.55;1.30;;;17.00;99.90;;;;;;5008014;28;20026;-75
2021/08/27 00:51:57;;;;;;;1.42;1.25;;;17.00;99.90;;;;;;5010972;28;20392;-72
2021/08/27 00:54:23;;;;;;;1.95;1.00;;;16.90;99.90;;;;;;5008907;28;20080;-72
2021/08/27 00:56:50;;;;;;;1.40;0.98;;;16.90;99.90;;;;;;5008659;28;20109;-72
2021/08/27 00:59:16;;;;;;;2.38;1.52;;;16.90;99.90;;;;;;5010361;28;20030;-72
2021/08/27 01:01:42;;;;;;;1.17;1.08;;;16.90;99.90;;;;;;5009515;28;20046;-72
2021/08/27 01:04:09;;;;;;;1.88;1.27;;;17.00;99.90;;;;;;5006273;28;20124;-72
2021/08/27 01:06:55;;;;;;;2.80;1.33;;;17.00;99.90;;;;;;5010383;28;20129;-75
2021/08/27 01:09:37;;;;;;;2.00;1.08;;;17.00;99.90;;;;;;5002690;28;20021;-75
2021/08/27 01:12:08;;;;;;;1.58;1.27;;;17.00;99.90;;;;;;5009521;28;20030;-72
2021/08/27 01:14:46;;;;;;;1.20;0.97;;;17.10;99.90;;;;;;5010218;28;20033;-73
2021/08/27 01:17:18;;;;;;;1.00;0.93;;;17.20;99.90;;;;;;5005665;28;20484;-75
2021/08/27 01:20:21;;;;;;;1.92;1.35;;;17.20;99.90;;;;;;5007700;28;20083;-74
2021/08/27 01:23:09;;;;;;;2.10;1.70;;;17.20;99.90;;;;;;5008913;28;20109;-73
2021/08/27 01:25:37;;;;;;;1.75;1.33;;;17.20;99.90;;;;;;5004953;28;20063;-73
2021/08/27 01:28:05;;;;;;;2.03;1.67;;;17.20;99.90;;;;;;5007384;28;20109;-75
2021/08/27 01:31:18;;;;;;;2.60;1.98;;;17.30;99.90;;;;;;5001555;28;20073;-72
2021/08/27 01:33:57;;;;;;;3.00;1.70;;;17.30;99.90;;;;;;5025151;28;20056;-74
2021/08/27 01:36:24;;;;;;;2.70;2.22;;;17.30;99.90;;;;;;5009505;28;20085;-75
2021/08/27 01:38:51;;;;;;;2.15;1.88;;;17.30;99.90;;;;;;5002898;28;20431;-72
2021/08/27 01:41:17;;;;;;;2.38;1.65;;;17.30;99.90;;;;;;5009437;28;20026;-75
2021/08/27 01:43:44;;;;;;;1.65;1.52;;;17.40;99.90;;;;;;5008868;28;20042;-74
2021/08/27 01:46:13;;;;;;;2.00;1.48;;;17.40;99.90;;;;;;5008611;28;20073;-73
2021/08/27 01:48:39;;;;;;;1.98;1.77;;;17.40;99.90;;;;;;5009433;28;20057;-74
2021/08/27 01:51:09;;;;;;;2.00;1.80;;;17.40;99.90;;;;;;5007951;28;20037;-75
2021/08/27 01:53:36;;;;;;;2.42;1.70;;;17.40;99.90;;;;;;5020508;28;20037;-73
2021/08/27 01:56:03;;;;;;;1.98;1.83;;;17.40;99.90;;;;;;5007777;28;20028;-74
2021/08/27 01:58:34;;;;;;;3.72;2.22;;;17.40;99.90;;;;;;5008390;28;20029;-75
2021/08/27 02:01:00;;;;;;;2.25;1.55;;;17.50;99.90;;;;;;5009203;28;20092;-74
2021/08/27 02:03:28;;;;;;;2.92;1.90;;;17.50;99.90;;;;;;5007433;28;20056;-73
2021/08/27 02:05:57;;;;;;;2.83;1.85;;;17.50;99.90;;;;;;5008824;28;20106;-72
2021/08/27 02:08:23;;;;;;;1.80;1.70;;;17.50;99.90;;;;;;5009243;28;20080;-74
2021/08/27 02:10:50;;;;;;;1.88;1.70;;;17.50;99.90;;;;;;5012771;28;20034;-73
2021/08/27 02:13:19;;;;;;;1.90;1.50;;;17.50;99.90;;;;;;5009052;28;20060;-75
2021/08/27 02:15:47;;;;;;;2.70;1.83;;;17.60;99.90;;;;;;5012656;28;20564;-75
2021/08/27 02:18:13;;;;;;;2.45;1.50;;;17.60;99.90;;;;;;5011935;28;20025;-75
2021/08/27 02:20:39;;;;;;;2.38;1.88;;;17.70;99.90;;;;;;5012396;28;20096;-73
2021/08/27 02:23:06;;;;;;;2.58;1.40;;;17.70;99.90;;;;;;5011556;28;20134;-73
2021/08/27 02:25:34;;;;;;;2.00;1.67;;;17.90;99.90;;;;;;5011816;28;20022;-74
2021/08/27 02:28:02;;;;;;;1.63;1.52;;;17.90;99.90;;;;;;5009549;28;20072;-74
2021/08/27 02:30:33;;;;;;;1.77;1.58;;;17.90;99.90;;;;;;5011821;28;20109;-73
2021/08/27 02:33:03;;;;;;;1.80;1.60;;;18.00;99.90;;;;;;5009198;28;20053;-73
2021/08/27 02:35:31;;;;;;;2.17;1.33;;;18.00;99.90;;;;;;5011825;28;20041;-73
2021/08/27 02:37:59;;;;;;;1.88;1.70;;;18.00;99.90;;;;;;5009798;28;20973;-72
2021/08/27 02:40:25;;;;;;;2.17;1.60;;;18.00;99.90;;;;;;5011513;28;20022;-72
2021/08/27 02:42:50;;;;;;;2.00;1.65;;;18.00;99.90;;;;;;5005338;28;20116;-76
2021/08/27 02:45:16;;;;;;;1.80;1.70;;;18.10;99.90;;;;;;5011850;28;20022;-73
2021/08/27 02:47:43;;;;;;;1.70;1.40;;;18.20;99.90;;;;;;5012559;28;20030;-74
2021/08/27 02:50:12;;;;;;;3.63;2.08;;;18.20;99.90;;;;;;5010967;28;20022;-74
2021/08/27 02:52:42;;;;;;;5.53;1.88;;;18.20;99.90;;;;;;5008599;28;20033;-74
2021/08/27 02:55:17;;;;;;;2.70;2.00;;;18.30;99.90;;;;;;5008690;28;20419;-74
2021/08/27 02:58:06;;;;;;;2.35;1.83;;;18.30;99.90;;;;;;4995055;28;20078;-74
2021/08/27 03:00:36;;;;;;;1.95;1.75;;;18.30;99.90;;;;;;5007492;28;20144;-74
2021/08/27 03:03:06;;;;;;;2.40;1.83;;;18.10;99.90;;;;;;5009770;28;20064;-74
2021/08/27 03:05:38;;;;;;;2.50;1.95;;;18.00;99.90;;;;;;5009307;28;20090;-73
2021/08/27 03:08:07;;;;;;;1.85;1.75;;;17.70;99.90;;;;;;5009608;28;20373;-75
2021/08/27 03:10:42;;;;;;;2.40;2.20;;;17.70;99.90;;;;;;5009572;28;20087;-74
2021/08/27 03:13:12;;;;;;;2.72;1.95;;;17.60;99.90;;;;;;5008979;28;20026;-74
2021/08/27 03:15:56;;;;;;;2.42;2.20;;;17.60;99.90;;;;;;5004173;28;20033;-74
2021/08/27 03:19:03;;;;;;;3.00;1.85;;;17.70;99.90;;;;;;5007373;28;20053;-74
2021/08/27 03:21:38;;;;;;;2.60;2.10;;;17.70;99.90;;;;;;4995636;28;20232;-74
2021/08/27 03:24:16;;;;;;;2.10;1.80;;;17.70;99.90;;;;;;5007910;28;20022;-74
2021/08/27 03:26:44;;;;;;;2.83;2.35;;;17.60;99.90;;;;;;5004057;28;20488;-75
2021/08/27 03:29:14;;;;;;;3.08;1.92;;;17.60;99.90;;;;;;5010269;28;20040;-74
2021/08/27 03:31:41;;;;;;;3.42;2.00;;;17.60;99.90;;;;;;5007557;28;20125;-74
2021/08/27 03:34:08;;;;;;;3.72;2.17;;;17.50;99.90;;;;;;5007865;28;20434;-74
2021/08/27 03:36:35;;;;;;;2.00;1.83;;;17.40;99.90;;;;;;5009473;28;20034;-74
2021/08/27 03:39:03;;;;;;;1.88;1.65;;;17.40;99.90;;;;;;5009561;28;20030;-74
2021/08/27 03:41:31;;;;;;;1.35;1.25;;;17.40;99.90;;;;;;5006964;28;20021;-74
2021/08/27 03:43:58;;;;;;;3.00;2.10;;;17.30;99.90;;;;;;5010387;28;20033;-74
2021/08/27 03:46:25;;;;;;;3.00;1.80;;;17.30;99.90;;;;;;5008903;28;20090;-75
2021/08/27 03:48:52;;;;;;;3.30;2.72;;;17.40;99.90;;;;;;5008046;28;20033;-74
2021/08/27 03:51:20;;;;;;;6.13;2.15;;;17.40;99.90;;;;;;5010324;28;20065;-74
2021/08/27 03:53:46;;;;;;;2.55;2.15;;;17.50;99.90;;;;;;5007097;28;20527;-74
2021/08/27 03:56:15;;;;;;;3.38;2.85;;;17.50;99.90;;;;;;5009804;28;20037;-74
2021/08/27 03:58:41;;;;;;;2.38;1.90;;;17.50;99.90;;;;;;5009082;28;20488;-75
2021/08/27 04:01:07;;;;;;;3.08;2.20;;;17.50;99.90;;;;;;5005181;28;20055;-75
2021/08/27 04:03:35;;;;;;;3.67;2.80;;;17.50;99.90;;;;;;5002917;28;20042;-75
2021/08/27 04:06:04;;;;;;;2.88;2.38;;;17.60;99.90;;;;;;5006932;28;20032;-73
2021/08/27 04:08:32;;;;;;;3.60;2.42;;;17.60;99.90;;;;;;5008025;28;20072;-75
2021/08/27 04:10:58;;;;;;;2.45;2.10;;;17.60;99.90;;;;;;5008629;28;20077;-74
2021/08/27 04:13:24;;;;;;;3.40;2.00;;;17.60;99.90;;;;;;5005887;28;20467;-74
2021/08/27 04:15:49;;;;;;;2.90;2.60;;;17.60;99.90;;;;;;5009097;28;20032;-73
2021/08/27 04:18:15;;;;;;;3.70;2.47;;;17.60;99.90;;;;;;5007153;28;20144;-74
2021/08/27 04:20:41;;;;;;;2.42;1.98;;;17.60;99.90;;;;;;5009316;28;20026;-74
2021/08/27 04:23:07;;;;;;;2.85;2.10;;;17.60;99.90;;;;;;5007721;28;20041;-75
2021/08/27 04:25:32;;;;;;;2.30;1.80;;;17.70;99.90;;;;;;5009787;28;20020;-74
2021/08/27 04:27:58;;;;;;;2.55;2.00;;;17.70;99.90;;;;;;5009030;28;20030;-74
2021/08/27 04:30:24;;;;;;;3.08;2.42;;;17.70;99.90;;;;;;5004323;28;20037;-74
2021/08/27 04:32:50;;;;;;;4.38;2.50;;;17.70;99.90;;;;;;5007321;28;20041;-75
2021/08/27 04:35:15;;;;;;;4.63;2.17;;;17.70;99.90;;;;;;5007759;28;20507;-74
2021/08/27 04:37:41;;;;;;;2.80;2.30;;;17.70;99.90;;;;;;4995705;28;20576;-74
2021/08/27 04:40:07;;;;;;;8.55;2.10;;;17.80;99.90;;;;;;4999683;28;20052;-74
2021/08/27 04:42:33;;;;;;;3.70;2.15;;;17.70;99.90;;;;;;5008917;28;20026;-75
2021/08/27 04:44:59;;;;;;;3.15;2.40;;;17.90;99.90;;;;;;5007175;28;20030;-74
2021/08/27 04:47:24;;;;;;;2.95;2.65;;;17.90;99.90;;;;;;5006359;28;20033;-74
2021/08/27 04:49:50;;;;;;;4.22;2.50;;;17.90;99.90;;;;;;5008847;28;20106;-74
2021/08/27 04:52:16;;;;;;;2.28;2.08;;;17.90;99.90;;;;;;5006200;28;20071;-74
2021/08/27 04:54:42;;;;;;;7.63;3.10;;;18.00;99.90;;;;;;5007878;28;20030;-74
2021/08/27 04:57:08;;;;;;;4.28;2.95;;;17.90;99.90;;;;;;5004519;28;20373;-75
2021/08/27 04:59:33;;;;;;;2.53;2.17;;;17.80;99.90;;;;;;5006008;28;20034;-74
2021/08/27 05:01:59;;;;;;;8.73;2.80;;;17.80;99.90;;;;;;5008309;28;20026;-76
2021/08/27 05:04:26;;;;;;;2.88;2.58;;;17.90;99.90;;;;;;5005049;28;20041;-75
2021/08/27 05:06:53;;;;;;;2.15;1.45;;;18.00;99.90;;;;;;5003401;28;20030;-74
2021/08/27 05:09:19;;;;;;;3.17;2.53;;;18.00;99.90;;;;;;5007958;28;20029;-75
2021/08/27 05:11:45;;;;;;;2.60;2.40;;;18.00;99.90;;;;;;5007696;28;20052;-74
2021/08/27 05:14:12;;;;;;;6.25;3.05;;;18.10;99.90;;;;;;5006085;28;20033;-75
2021/08/27 05:16:38;;;;;;;2.33;2.17;;;18.10;99.90;;;;;;5009827;28;20026;-74
2021/08/27 05:19:03;;;;;;;3.75;2.75;;;18.10;99.90;;;;;;5008557;28;20030;-74
2021/08/27 05:21:29;;;;;;;3.80;2.33;;;18.10;99.90;;;;;;5010358;28;20499;-74
2021/08/27 05:23:55;;;;;;;2.70;2.40;;;18.10;99.90;;;;;;5009909;28;20026;-73
2021/08/27 05:26:21;;;;;;;3.13;2.63;;;18.00;99.90;;;;;;5007584;28;20396;-74
2021/08/27 05:28:48;;;;;;;2.42;2.20;;;18.00;99.90;;;;;;5002143;28;20032;-75
2021/08/27 05:31:15;;;;;;;2.75;2.55;;;17.90;99.90;;;;;;5016233;28;20030;-74
2021/08/27 05:33:41;;;;;;;3.10;2.55;;;17.90;99.90;;;;;;5012623;28;20076;-75
2021/08/27 05:36:08;;;;;;;3.63;3.33;;;17.90;99.90;;;;;;5010857;28;20030;-75
2021/08/27 05:38:33;;;;;;;3.05;2.45;;;18.00;99.90;;;;;;5009725;28;20053;-75
2021/08/27 05:40:59;;;;;;;2.90;2.55;;;18.00;99.90;;;;;;5009293;28;20061;-74
2021/08/27 05:43:25;;;;;;;3.05;2.65;;;17.90;99.90;;;;;;5011501;28;20026;-75
2021/08/27 05:45:51;;;;;;;3.03;2.72;;;18.00;99.90;;;;;;5020875;28;20052;-74
2021/08/27 05:48:17;;;;;;;7.57;3.60;;;18.10;99.90;;;;;;5012835;28;20022;-76
2021/08/27 05:50:43;;;;;;;3.20;2.92;;;18.10;99.90;;;;;;5016986;28;20066;-75
2021/08/27 05:53:08;;;;;;;2.97;2.60;;;18.30;99.90;;;;;;5011978;28;20065;-75
2021/08/27 05:55:34;;;;;;;2.65;2.17;;;18.50;99.90;;;;;;5014492;28;20507;-75
2021/08/27 05:58:00;;;;;;;5.85;2.42;;;18.50;99.90;;;;;;5014493;28;20026;-75
2021/08/27 06:00:26;;;;;;;5.80;3.13;;;18.50;99.90;;;;;;5015775;28;20157;-75
2021/08/27 06:02:52;;;;;;;3.15;2.85;;;18.60;99.90;;;;;;5021506;28;20018;-75
2021/08/27 06:05:20;;;;;;;3.60;2.85;;;18.70;99.90;;;;;;5017570;28;20029;-74
2021/08/27 06:07:46;;;;;;;3.30;2.15;;;18.70;99.90;;;;;;5015816;28;20033;-75
2021/08/27 06:10:12;;;;;;;4.15;2.80;;;18.80;99.90;;;;;;5018478;28;20032;-74
2021/08/27 06:12:39;;;;;;;2.45;2.25;;;18.90;99.90;;;;;;5014758;28;20034;-74
2021/08/27 06:15:05;;;;;;;2.85;2.65;;;18.90;99.90;;;;;;5013403;28;20034;-74
2021/08/27 06:17:31;;;;;;;14.50;2.65;;;18.90;99.90;;;;;;5013353;28;20022;-75
2021/08/27 06:19:57;;;;;;;2.47;2.28;;;19.00;99.90;;;;;;5012451;28;20496;-75
2021/08/27 06:22:23;;;;;;;3.50;3.20;;;19.00;99.90;;;;;;5013242;28;20080;-75
2021/08/27 06:24:49;;;;;;;3.53;3.13;;;19.00;99.90;;;;;;5011484;28;20396;-76
2021/08/27 06:27:15;;;;;;;8.88;3.50;;;19.10;99.90;;;;;;5013329;28;20098;-75
2021/08/27 06:29:40;;;;;;;5.93;3.35;;;19.10;99.90;;;;;;5012084;28;20124;-74
2021/08/27 06:32:07;;;;;;;19.38;3.70;;;19.10;99.90;;;;;;5012972;28;20030;-75
2021/08/27 06:34:32;;;;;;;4.00;3.35;;;19.10;99.90;;;;;;5012115;28;20030;-75
2021/08/27 06:36:58;;;;;;;4.72;3.50;;;19.10;99.90;;;;;;5011227;28;20056;-75
2021/08/27 06:39:24;;;;;;;3.63;3.03;;;19.10;99.90;;;;;;5011201;28;20036;-75
2021/08/27 06:41:50;;;;;;;7.43;4.00;;;19.30;99.90;;;;;;5010799;28;20042;-74
2021/08/27 06:44:16;;;;;;;3.30;2.60;;;19.40;99.90;;;;;;5012448;28;20080;-74
2021/08/27 06:46:45;;;;;;;4.47;2.83;;;19.50;99.90;;;;;;5012147;28;20022;-75
2021/08/27 06:49:12;;;;;;;3.00;2.70;;;19.70;99.90;;;;;;5011212;28;20026;-75
2021/08/27 06:51:42;;;;;;;5.82;4.03;;;19.70;99.90;;;;;;5010744;28;20109;-66
2021/08/27 06:54:08;;;;;;;5.47;3.33;;;20.10;99.90;;;;;;5010153;28;20030;-69
2021/08/27 06:56:34;;;;;;;6.82;2.92;;;20.50;99.90;;;;;;5011622;28;20050;-70
2021/08/27 06:59:00;;;;;;;6.05;3.10;;;20.60;99.90;;;;;;5010456;28;20033;-70
2021/08/27 07:01:26;;;;;;;4.57;3.10;;;20.50;99.90;;;;;;5012040;28;20338;-71
2021/08/27 07:03:52;;;;;;;8.27;3.65;;;20.50;99.90;;;;;;5010826;28;20093;-69
2021/08/27 07:06:19;;;;;;;6.78;4.13;;;20.50;99.90;;;;;;5003683;28;20029;-68
2021/08/27 07:08:45;;;;;;;4.88;3.75;;;20.60;99.90;;;;;;5009261;28;20061;-69
2021/08/27 07:11:11;;;;;;;5.55;3.33;;;20.50;99.90;;;;;;5010707;28;20049;-69
2021/08/27 07:13:37;;;;;;;6.88;3.35;;;20.40;99.90;;;;;;5010421;28;20034;-69
2021/08/27 07:16:03;;;;;;;5.95;2.95;;;20.20;99.90;;;;;;5011538;28;20018;-70
2021/08/27 07:18:30;;;;;;;5.07;3.05;;;20.10;99.90;;;;;;5010400;28;20064;-69
2021/08/27 07:20:56;;;;;;;6.28;4.53;;;20.10;99.90;;;;;;5011392;28;20030;-69
2021/08/27 07:23:23;;;;;;;3.45;3.08;;;20.00;99.90;;;;;;5009096;28;20030;-70
2021/08/27 07:25:50;;;;;;;9.32;3.05;;;19.90;99.90;;;;;;5010917;28;20030;-69
2021/08/27 07:28:16;;;;;;;4.10;3.38;;;19.80;99.90;;;;;;5006757;28;20026;-70
2021/08/27 07:30:42;;;;;;;3.65;2.83;;;19.60;99.90;;;;;;5009637;28;20040;-69
2021/08/27 07:33:08;;;;;;;3.90;3.10;;;19.60;99.90;;;;;;5006486;28;20032;-69
2021/08/27 07:35:34;;;;;;;3.78;2.95;;;19.50;99.90;;;;;;5010544;28;20030;-70
2021/08/27 07:38:00;;;;;;;4.82;3.10;;;19.50;99.90;;;;;;5008068;28;20038;-70
2021/08/27 07:40:26;;;;;;;3.22;2.75;;;19.60;99.90;;;;;;5010871;28;20029;-69
2021/08/27 07:42:51;;;;;;;11.63;3.45;;;19.70;99.90;;;;;;5009639;28;20144;-69
2021/08/27 07:45:17;;;;;;;4.38;2.78;;;19.90;99.90;;;;;;5010250;28;20014;-70
2021/08/27 07:47:44;;;;;;;4.00;2.50;;;19.80;99.90;;;;;;5010740;28;20045;-72
2021/08/27 07:50:11;;;;;;;4.28;3.03;;;19.70;99.90;;;;;;5011237;28;20049;-70
2021/08/27 07:52:37;;;;;;;3.72;3.28;;;19.80;99.90;;;;;;5010610;28;20025;-69
2021/08/27 07:55:05;;;;;;;5.70;2.90;;;19.80;99.90;;;;;;5011665;28;20044;-71
2021/08/27 07:57:31;;;;;;;4.28;3.17;;;19.90;99.90;;;;;;5010429;28;20102;-70
2021/08/27 07:59:57;;;;;;;3.78;3.30;;;19.90;99.90;;;;;;5010658;28;20472;-70
2021/08/27 08:02:23;;;;;;;3.58;3.13;;;19.90;99.90;;;;;;5011412;28;20071;-71
2021/08/27 08:04:49;;;;;;;5.10;2.45;;;19.90;99.90;;;;;;5010696;28;20030;-69
2021/08/27 08:07:15;;;;;;;4.15;2.45;;;19.80;99.90;;;;;;5010732;28;20018;-70
2021/08/27 08:09:41;;;;;;;3.40;2.63;;;19.80;99.90;;;;;;5009868;28;20398;-70
2021/08/27 08:12:07;;;;;;;5.93;3.08;;;19.80;99.90;;;;;;5009585;28;20527;-70
2021/08/27 08:14:33;;;;;;;3.67;3.05;;;19.80;99.90;;;;;;5009789;28;20029;-69
2021/08/27 08:16:59;;;;;;;6.70;3.47;;;19.90;99.90;;;;;;5011052;28;20030;-69
2021/08/27 08:19:24;;;;;;;3.35;2.75;;;20.00;99.90;;;;;;5009847;28;20030;-70
2021/08/27 08:21:50;;;;;;;6.10;3.42;;;20.00;99.90;;;;;;5011478;28;20061;-69
2021/08/27 08:24:16;;;;;;;3.70;3.10;;;20.00;99.90;;;;;;5009983;28;20022;-69
2021/08/27 08:26:42;;;;;;;4.32;3.30;;;20.10;99.90;;;;;;5008012;28;20694;-73
2021/08/27 08:29:08;;;;;;;7.05;3.42;;;20.10;99.90;;;;;;5008529;28;20026;-71
2021/08/27 08:31:34;;;;;;;4.78;3.30;;;20.10;99.90;;;;;;5010656;28;20100;-70
2021/08/27 08:34:00;;;;;;;4.20;3.28;;;20.20;99.90;;;;;;5009674;28;20053;-71
2021/08/27 08:36:26;;;;;;;4.80;3.50;;;20.30;99.90;;;;;;5010597;28;20061;-71
2021/08/27 08:38:52;;;;;;;3.25;2.70;;;20.40;99.90;;;;;;5008970;28;20038;-70
2021/08/27 08:41:20;;;;;;;3.55;2.92;;;20.30;99.90;;;;;;5010227;28;20638;-71
2021/08/27 08:43:47;;;;;;;4.85;3.50;;;20.30;99.90;;;;;;5008972;28;20026;-71
2021/08/27 08:46:14;;;;;;;6.88;4.32;;;20.60;99.90;;;;;;5010442;28;20022;-69
2021/08/27 08:48:46;;;;;;;4.38;3.42;;;20.70;99.90;;;;;;5005326;28;20034;-72
2021/08/27 08:51:12;;;;;;;3.28;3.05;;;20.80;99.90;;;;;;5009916;28;20064;-70
2021/08/27 08:53:40;;;;;;;6.85;3.65;;;20.80;99.90;;;;;;5008031;28;20030;-71
2021/08/27 08:56:09;;;;;;;4.47;3.35;;;20.60;99.90;;;;;;5008100;28;20108;-71
2021/08/27 08:58:35;;;;;;;7.00;3.47;;;20.50;99.90;;;;;;5009796;28;20484;-71
2021/08/27 09:01:02;;;;;;;4.10;3.42;;;20.50;99.90;;;;;;5009176;28;20026;-70
2021/08/27 09:03:27;;;;;;;3.10;2.75;;;20.60;99.90;;;;;;5009166;28;20036;-70
2021/08/27 09:05:53;;;;;;;9.20;3.38;;;20.70;99.90;;;;;;5010062;28;20026;-68
2021/08/27 09:08:43;;;;;;;5.22;3.30;;;20.80;99.90;;;;;;5009801;28;20032;-71
2021/08/27 09:11:15;;;;;;;6.55;4.05;;;20.90;99.90;;;;;;5010455;28;20029;-68
2021/08/27 09:13:42;;;;;;;3.10;2.78;;;21.00;99.90;;;;;;5010566;28;20029;-70
2021/08/27 09:16:09;;;;;;;3.25;2.95;;;21.00;99.90;;;;;;5010945;28;20025;-68
2021/08/27 09:18:40;;;;;;;8.38;3.35;;;20.90;99.90;;;;;;5012338;28;20026;-69
2021/08/27 09:21:25;;;;;;;2.97;2.67;;;21.00;99.90;;;;;;5015156;28;20090;-68
2021/08/27 09:24:10;;;;;;;3.75;3.40;;;21.20;99.90;;;;;;5012750;28;20214;-70
2021/08/27 09:26:36;;;;;;;8.55;2.97;;;21.30;99.90;;;;;;5012988;28;20140;-68
2021/08/27 09:29:03;;;;;;;5.25;3.63;;;21.20;99.90;;;;;;5013810;28;20030;-70
2021/08/27 09:31:32;;;;;;;3.88;3.38;;;21.20;99.90;;;;;;5014246;28;20026;-69
2021/08/27 09:33:58;;;;;;;4.30;3.05;;;21.40;99.90;;;;;;5013958;28;20392;-69
2021/08/27 09:36:24;;;;;;;3.75;3.35;;;21.80;99.90;;;;;;5012748;28;20033;-71
2021/08/27 09:39:10;;;;;;;5.93;3.25;;;22.00;99.90;;;;;;5013671;28;20026;-70
2021/08/27 09:41:37;;;;;;;4.50;3.10;;;22.10;99.90;;;;;;5013585;28;20026;-70
2021/08/27 09:44:02;;;;;;;4.85;3.70;;;22.00;99.90;;;;;;5006779;28;20384;-70
2021/08/27 09:46:45;;;;;;;3.55;3.17;;;22.10;99.90;;;;;;5008183;28;20024;-72
2021/08/27 09:49:31;;;;;;;4.90;3.40;;;22.10;99.90;;;;;;4993816;28;20023;-69
2021/08/27 09:52:02;;;;;;;3.67;3.38;;;21.90;99.90;;;;;;5009566;28;20022;-69
2021/08/27 09:54:36;;;;;;;4.63;3.33;;;21.80;99.90;;;;;;5010969;28;20026;-71
2021/08/27 09:57:08;;;;;;;9.82;3.97;;;22.00;99.90;;;;;;5012154;28;20144;-72
2021/08/27 09:59:39;;;;;;;6.05;4.43;;;22.10;99.90;;;;;;5009283;28;20022;-70
2021/08/27 10:02:12;;;;;;;4.25;3.42;;;22.40;99.90;;;;;;5017238;28;20036;-69
2021/08/27 10:04:57;;;;;;;4.82;3.80;;;22.40;99.90;;;;;;5007671;28;20027;-70
2021/08/27 10:07:26;;;;;;;5.25;3.67;;;22.30;99.90;;;;;;5006576;28;20045;-72
2021/08/27 10:09:51;;;;;;;6.95;3.78;;;22.20;99.90;;;;;;5012619;28;20029;-71
2021/08/27 10:12:18;;;;;;;3.72;3.33;;;22.10;99.90;;;;;;5017031;28;20033;-69
2021/08/27 10:14:44;;;;;;;3.83;3.42;;;22.10;99.90;;;;;;5014832;28;20040;-68
2021/08/27 10:17:13;;;;;;;5.13;3.53;;;22.00;99.90;;;;;;5011092;28;20033;-70
2021/08/27 10:19:39;;;;;;;6.97;5.25;;;22.10;99.90;;;;;;5010031;28;20374;-68
2021/08/27 10:22:05;;;;;;;4.60;3.47;;;22.00;99.90;;;;;;5012922;28;20024;-69
2021/08/27 10:24:31;;;;;;;4.95;4.35;;;22.00;99.90;;;;;;5011952;28;20073;-70
2021/08/27 10:26:57;;;;;;;7.60;4.03;;;22.00;99.90;;;;;;5012518;28;20436;-68
2021/08/27 10:29:23;;;;;;;7.82;3.38;;;22.10;99.90;;;;;;5009415;28;20030;-70
2021/08/27 10:31:51;;;;;;;4.15;3.17;;;22.00;99.90;;;;;;5012377;28;20026;-70
2021/08/27 10:34:18;;;;;;;5.22;2.80;;;21.90;99.90;;;;;;5011266;28;20105;-69
2021/08/27 10:36:51;;;;;;;6.10;3.75;;;21.80;99.90;;;;;;5011107;28;20030;-70
2021/08/27 10:39:38;;;;;;;6.32;3.47;;;21.80;99.90;;;;;;5012622;28;20116;-70
2021/08/27 10:42:06;;;;;;;3.50;3.15;;;21.80;99.90;;;;;;5006579;28;20033;-70
2021/08/27 10:44:46;;;;;;;3.17;2.83;;;21.70;99.90;;;;;;5012399;28;20395;-69
2021/08/27 10:47:12;;;;;;;4.95;3.30;;;21.50;99.90;;;;;;5012491;28;20029;-71
2021/08/27 10:49:47;;;;;;;3.70;3.40;;;21.40;99.90;;;;;;5010100;28;20030;-70
2021/08/27 10:52:22;;;;;;;3.47;3.17;;;21.40;99.90;;;;;;5011846;28;20033;-71
2021/08/27 10:55:04;;;;;;;4.03;3.40;;;21.60;99.90;;;;;;5004118;28;20507;-70
2021/08/27 10:57:45;;;;;;;3.75;3.28;;;21.80;99.90;;;;;;5011749;28;20045;-71
2021/08/27 11:00:11;;;;;;;4.77;3.57;;;22.00;99.90;;;;;;5011351;28;20022;-71
2021/08/27 11:02:56;;;;;;;5.25;3.67;;;22.00;99.90;;;;;;5011257;28;20365;-72
2021/08/27 11:05:32;;;;;;;4.10;3.58;;;22.10;99.90;;;;;;5012101;28;20196;-71
2021/08/27 11:08:12;;;;;;;7.45;3.45;;;22.30;99.90;;;;;;5005619;28;20027;-72
2021/08/27 11:10:43;;;;;;;6.18;3.40;;;22.50;99.90;;;;;;5011819;28;20124;-70
2021/08/27 11:13:14;;;;;;;5.77;3.40;;;22.60;99.90;;;;;;5011983;28;20112;-69
2021/08/27 11:15:42;;;;;;;4.68;3.28;;;22.60;99.90;;;;;;5010499;28;20400;-71
2021/08/27 11:18:17;;;;;;;3.50;3.13;;;22.50;99.90;;;;;;5010301;28;20057;-70
2021/08/27 11:20:47;;;;;;;6.13;3.70;;;22.50;99.90;;;;;;5009957;28;20165;-69
2021/08/27 11:23:14;;;;;;;3.33;2.42;;;22.60;99.90;;;;;;5008349;28;20033;-69
2021/08/27 11:26:02;;;;;;;6.35;3.78;;;22.80;99.90;;;;;;5011321;28;20032;-72
2021/08/27 11:28:29;;;;;;;4.28;3.88;;;23.00;99.90;;;;;;5011765;28;20022;-70
2021/08/27 11:31:21;;;;;;;3.65;3.35;;;23.00;99.90;;;;;;5010848;28;20061;-71
2021/08/27 11:33:48;;;;;;;;;;;23.10;99.90;;;;;;5009855;28;20048;-70
2021/08/27 11:36:17;;;;;;;4.88;3.78;;;23.10;99.90;;;;;;5011532;28;19941;-70
2021/08/27 11:38:43;;;;;;;5.03;4.03;;;23.40;99.90;;;;;;5010356;28;20021;-69
2021/08/27 11:41:11;;;;;;;6.68;3.83;;;23.50;99.90;;;;;;5010841;28;20105;-70
2021/08/27 11:43:50;;;;;;;8.85;3.72;;;23.50;99.90;;;;;;5010334;28;20037;-71
2021/08/27 11:46:19;;;;;;;6.05;4.13;;;23.60;99.90;;;;;;5010209;28;20097;-71
2021/08/27 11:48:52;;;;;;;4.43;3.03;;;23.50;99.90;;;;;;5009494;28;20067;-72
2021/08/27 11:51:24;;;;;;;5.93;2.92;;;23.50;99.90;;;;;;5011766;28;20021;-71
2021/08/27 11:53:50;;;;;;;3.42;3.13;;;23.50;99.90;;;;;;5010480;28;20053;-69
2021/08/27 11:56:25;;;;;;;5.90;2.88;;;23.60;99.90;;;;;;5011394;28;20534;-69
2021/08/27 11:58:51;;;;;;;6.00;3.45;;;23.80;99.90;;;;;;5002219;28;20054;-72
2021/08/27 12:01:28;;;;;;;3.22;2.92;;;23.90;99.90;;;;;;5000856;28;20026;-72
2021/08/27 12:03:57;;;;;;;3.33;2.92;;;24.00;99.90;;;;;;5004137;28;20030;-69
2021/08/27 12:06:26;;;;;;;5.47;3.33;;;24.00;99.90;;;;;;5001312;28;20010;-70
2021/08/27 12:08:52;;;;;;;5.03;2.95;;;23.70;99.90;;;;;;5007761;28;20030;-71
2021/08/27 12:11:29;;;;;;;3.58;3.28;;;23.60;99.90;;;;;;5006014;28;20409;-71
2021/08/27 12:13:55;;;;;;;6.47;3.67;;;23.60;99.90;;;;;;5001644;28;20029;-71
2021/08/27 12:16:21;;;;;;;4.25;3.85;;;23.60;99.90;;;;;;5000614;28;20418;-70
2021/08/27 12:18:55;;;;;;;4.03;3.63;;;23.50;99.90;;;;;;5001939;28;20026;-70
2021/08/27 12:21:24;;;;;;;3.78;3.40;;;23.50;99.90;;;;;;5001908;28;20025;-70
2021/08/27 12:24:09;;;;;;;3.50;3.20;;;23.80;99.90;;;;;;5008901;28;20022;-71
2021/08/27 12:26:36;;;;;;;5.05;3.20;;;23.80;99.90;;;;;;5004342;28;20469;-71
2021/08/27 12:29:02;;;;;;;6.78;3.38;;;23.90;99.90;;;;;;5002774;28;20488;-72
2021/08/27 12:31:38;;;;;;;4.53;3.15;;;24.20;99.90;;;;;;5003408;28;20046;-70
2021/08/27 12:34:04;;;;;;;4.57;4.18;;;24.40;99.90;;;;;;5007651;28;20484;-71
2021/08/27 12:36:37;;;;;;;3.15;2.75;;;24.40;99.90;;;;;;5006617;28;20026;-71
2021/08/27 12:39:04;;;;;;;5.93;2.95;;;24.60;99.90;;;;;;5006136;28;20026;-71
2021/08/27 12:41:30;;;;;;;4.57;3.65;;;24.80;99.90;;;;;;5004310;28;20029;-71
2021/08/27 12:44:13;;;;;;;4.45;4.05;;;24.80;99.90;;;;;;5003826;28;20022;-70
2021/08/27 12:46:46;;;;;;;4.50;3.10;;;24.60;99.90;;;;;;5004517;28;20030;-72
2021/08/27 12:49:21;;;;;;;3.05;2.78;;;24.40;99.90;;;;;;5000903;28;20057;-71
2021/08/27 12:51:52;;;;;;;4.10;3.67;;;24.50;99.90;;;;;;4998333;28;20037;-70
2021/08/27 12:54:19;;;;;;;3.90;3.42;;;24.70;99.90;;;;;;4999059;28;20476;-70
2021/08/27 12:56:59;;;;;;;3.80;3.40;;;24.90;99.90;;;;;;4998741;28;20117;-70